sensor_id;sensor_type;location;lat;lon;timestamp;P1;durP1;ratioP1;P2;durP2;ratioP2
64826;SDS011;51265;53.972;12.286;2023-04-25T00:00:41;9.43;;;5.85;;
64826;SDS011;51265;53.972;12.286;2023-04-25T00:03:07;8.30;;;5.75;;
64826;SDS011;51265;53.972;12.286;2023-04-25T00:05:35;9.60;;;5.65;;
64826;SDS011;51265;53.972;12.286;2023-04-25T00:08:03;11.20;;;6.05;;
64826;SDS011;51265;53.972;12.286;2023-04-25T00:10:30;9.82;;;5.90;;
64826;SDS011;51265;53.972;12.286;2023-04-25T00:12:57;8.18;;;5.80;;
64826;SDS011;51265;53.972;12.286;2023-04-25T00:15:24;8.80;;;5.90;;
64826;SDS011;51265;53.972;12.286;2023-04-25T00:17:51;10.32;;;6.50;;
64826;SDS011;51265;53.972;12.286;2023-04-25T00:20:18;10.02;;;6.57;;
64826;SDS011;51265;53.972;12.286;2023-04-25T00:22:45;12.00;;;7.38;;
64826;SDS011;51265;53.972;12.286;2023-04-25T00:25:11;11.82;;;6.95;;
64826;SDS011;51265;53.972;12.286;2023-04-25T00:27:37;11.35;;;6.93;;
64826;SDS011;51265;53.972;12.286;2023-04-25T00:30:05;9.63;;;6.72;;
64826;SDS011;51265;53.972;12.286;2023-04-25T00:32:32;10.90;;;6.47;;
64826;SDS011;51265;53.972;12.286;2023-04-25T00:34:58;9.90;;;6.47;;
64826;SDS011;51265;53.972;12.286;2023-04-25T00:37:25;8.95;;;6.70;;
64826;SDS011;51265;53.972;12.286;2023-04-25T00:39:51;11.52;;;7.00;;
64826;SDS011;51265;53.972;12.286;2023-04-25T00:42:19;10.88;;;7.05;;
64826;SDS011;51265;53.972;12.286;2023-04-25T00:44:47;12.38;;;7.45;;
64826;SDS011;51265;53.972;12.286;2023-04-25T00:47:13;12.43;;;6.95;;
64826;SDS011;51265;53.972;12.286;2023-04-25T00:49:41;11.93;;;7.22;;
64826;SDS011;51265;53.972;12.286;2023-04-25T00:52:08;9.55;;;6.88;;
64826;SDS011;51265;53.972;12.286;2023-04-25T00:54:35;15.50;;;7.43;;
64826;SDS011;51265;53.972;12.286;2023-04-25T00:57:02;12.85;;;7.47;;
64826;SDS011;51265;53.972;12.286;2023-04-25T00:59:28;10.88;;;6.93;;
64826;SDS011;51265;53.972;12.286;2023-04-25T01:01:56;12.07;;;7.47;;
64826;SDS011;51265;53.972;12.286;2023-04-25T01:04:27;9.93;;;6.57;;
64826;SDS011;51265;53.972;12.286;2023-04-25T01:06:54;16.80;;;8.20;;
64826;SDS011;51265;53.972;12.286;2023-04-25T01:09:21;12.77;;;7.47;;
64826;SDS011;51265;53.972;12.286;2023-04-25T01:11:48;12.00;;;6.80;;
64826;SDS011;51265;53.972;12.286;2023-04-25T01:26:34;10.15;;;6.40;;
64826;SDS011;51265;53.972;12.286;2023-04-25T01:29:03;12.48;;;7.57;;
64826;SDS011;51265;53.972;12.286;2023-04-25T01:31:30;11.30;;;7.38;;
64826;SDS011;51265;53.972;12.286;2023-04-25T01:33:59;15.50;;;8.63;;
64826;SDS011;51265;53.972;12.286;2023-04-25T01:36:28;11.82;;;8.05;;
64826;SDS011;51265;53.972;12.286;2023-04-25T01:38:55;14.02;;;8.73;;
64826;SDS011;51265;53.972;12.286;2023-04-25T01:41:22;15.52;;;8.75;;
64826;SDS011;51265;53.972;12.286;2023-04-25T01:43:49;17.20;;;9.43;;
64826;SDS011;51265;53.972;12.286;2023-04-25T01:46:16;17.30;;;10.38;;
64826;SDS011;51265;53.972;12.286;2023-04-25T01:48:43;13.57;;;9.52;;
64826;SDS011;51265;53.972;12.286;2023-04-25T01:51:10;16.17;;;8.75;;
64826;SDS011;51265;53.972;12.286;2023-04-25T01:53:38;18.15;;;9.75;;
64826;SDS011;51265;53.972;12.286;2023-04-25T01:56:05;16.05;;;9.85;;
64826;SDS011;51265;53.972;12.286;2023-04-25T01:58:34;17.65;;;10.20;;
64826;SDS011;51265;53.972;12.286;2023-04-25T02:01:27;21.08;;;9.65;;
64826;SDS011;51265;53.972;12.286;2023-04-25T02:04:11;18.60;;;9.45;;
64826;SDS011;51265;53.972;12.286;2023-04-25T02:06:39;16.58;;;8.98;;
64826;SDS011;51265;53.972;12.286;2023-04-25T02:09:07;12.70;;;8.23;;
64826;SDS011;51265;53.972;12.286;2023-04-25T02:11:33;15.38;;;7.97;;
64826;SDS011;51265;53.972;12.286;2023-04-25T02:14:18;15.60;;;8.65;;
64826;SDS011;51265;53.972;12.286;2023-04-25T02:16:50;15.25;;;7.60;;
64826;SDS011;51265;53.972;12.286;2023-04-25T02:19:18;17.50;;;7.38;;
64826;SDS011;51265;53.972;12.286;2023-04-25T02:21:46;18.45;;;6.88;;
64826;SDS011;51265;53.972;12.286;2023-04-25T02:24:13;15.05;;;7.28;;
64826;SDS011;51265;53.972;12.286;2023-04-25T02:26:39;17.95;;;7.40;;
64826;SDS011;51265;53.972;12.286;2023-04-25T02:29:08;12.38;;;7.07;;
64826;SDS011;51265;53.972;12.286;2023-04-25T02:31:35;12.98;;;7.55;;
64826;SDS011;51265;53.972;12.286;2023-04-25T02:34:02;19.40;;;7.57;;
64826;SDS011;51265;53.972;12.286;2023-04-25T02:36:28;16.50;;;7.05;;
64826;SDS011;51265;53.972;12.286;2023-04-25T02:38:58;15.18;;;7.15;;
64826;SDS011;51265;53.972;12.286;2023-04-25T02:41:24;17.73;;;8.10;;
64826;SDS011;51265;53.972;12.286;2023-04-25T02:43:50;18.42;;;7.20;;
64826;SDS011;51265;53.972;12.286;2023-04-25T02:46:18;14.82;;;7.05;;
64826;SDS011;51265;53.972;12.286;2023-04-25T02:48:46;12.55;;;7.72;;
64826;SDS011;51265;53.972;12.286;2023-04-25T02:51:13;13.75;;;7.85;;
64826;SDS011;51265;53.972;12.286;2023-04-25T02:53:40;13.60;;;7.10;;
64826;SDS011;51265;53.972;12.286;2023-04-25T02:56:06;16.63;;;7.28;;
64826;SDS011;51265;53.972;12.286;2023-04-25T02:58:33;12.93;;;7.53;;
64826;SDS011;51265;53.972;12.286;2023-04-25T03:00:59;17.77;;;7.57;;
64826;SDS011;51265;53.972;12.286;2023-04-25T03:03:26;13.48;;;6.85;;
64826;SDS011;51265;53.972;12.286;2023-04-25T03:05:53;17.10;;;5.90;;
64826;SDS011;51265;53.972;12.286;2023-04-25T03:08:26;13.88;;;7.00;;
64826;SDS011;51265;53.972;12.286;2023-04-25T03:10:59;15.30;;;6.78;;
64826;SDS011;51265;53.972;12.286;2023-04-25T03:13:25;17.13;;;5.85;;
64826;SDS011;51265;53.972;12.286;2023-04-25T03:15:53;10.40;;;4.07;;
64826;SDS011;51265;53.972;12.286;2023-04-25T03:18:20;13.32;;;4.25;;
64826;SDS011;51265;53.972;12.286;2023-04-25T03:20:46;17.52;;;4.93;;
64826;SDS011;51265;53.972;12.286;2023-04-25T03:23:13;12.73;;;3.20;;
64826;SDS011;51265;53.972;12.286;2023-04-25T03:25:42;15.88;;;4.15;;
64826;SDS011;51265;53.972;12.286;2023-04-25T03:28:08;15.85;;;4.22;;
64826;SDS011;51265;53.972;12.286;2023-04-25T03:30:34;11.45;;;3.22;;
64826;SDS011;51265;53.972;12.286;2023-04-25T03:33:01;13.45;;;3.40;;
64826;SDS011;51265;53.972;12.286;2023-04-25T03:35:27;11.30;;;3.20;;
64826;SDS011;51265;53.972;12.286;2023-04-25T03:37:54;15.57;;;3.17;;
64826;SDS011;51265;53.972;12.286;2023-04-25T03:40:26;17.90;;;3.83;;
64826;SDS011;51265;53.972;12.286;2023-04-25T03:43:22;13.27;;;3.20;;
64826;SDS011;51265;53.972;12.286;2023-04-25T03:45:54;16.25;;;3.58;;
64826;SDS011;51265;53.972;12.286;2023-04-25T03:48:22;13.88;;;3.40;;
64826;SDS011;51265;53.972;12.286;2023-04-25T03:50:51;17.67;;;3.72;;
64826;SDS011;51265;53.972;12.286;2023-04-25T03:53:18;22.73;;;3.35;;
64826;SDS011;51265;53.972;12.286;2023-04-25T03:56:03;16.40;;;3.63;;
64826;SDS011;51265;53.972;12.286;2023-04-25T03:58:33;13.30;;;3.40;;
64826;SDS011;51265;53.972;12.286;2023-04-25T04:00:59;18.77;;;3.22;;
64826;SDS011;51265;53.972;12.286;2023-04-25T04:03:26;18.48;;;3.33;;
64826;SDS011;51265;53.972;12.286;2023-04-25T04:05:52;17.17;;;3.35;;
64826;SDS011;51265;53.972;12.286;2023-04-25T04:08:19;16.05;;;2.97;;
64826;SDS011;51265;53.972;12.286;2023-04-25T04:10:46;24.95;;;4.13;;
64826;SDS011;51265;53.972;12.286;2023-04-25T04:13:13;12.68;;;2.80;;
64826;SDS011;51265;53.972;12.286;2023-04-25T04:15:39;19.67;;;3.47;;
64826;SDS011;51265;53.972;12.286;2023-04-25T04:18:05;17.65;;;3.13;;
64826;SDS011;51265;53.972;12.286;2023-04-25T04:20:32;14.30;;;2.58;;
64826;SDS011;51265;53.972;12.286;2023-04-25T04:22:59;17.25;;;2.45;;
64826;SDS011;51265;53.972;12.286;2023-04-25T04:25:25;11.35;;;3.42;;
64826;SDS011;51265;53.972;12.286;2023-04-25T04:28:18;16.00;;;3.50;;
64826;SDS011;51265;53.972;12.286;2023-04-25T04:31:05;18.73;;;3.50;;
64826;SDS011;51265;53.972;12.286;2023-04-25T04:33:32;13.20;;;2.75;;
64826;SDS011;51265;53.972;12.286;2023-04-25T04:36:01;14.35;;;3.60;;
64826;SDS011;51265;53.972;12.286;2023-04-25T04:38:29;17.42;;;3.75;;
64826;SDS011;51265;53.972;12.286;2023-04-25T04:40:59;15.75;;;2.85;;
64826;SDS011;51265;53.972;12.286;2023-04-25T04:43:34;17.60;;;2.80;;
64826;SDS011;51265;53.972;12.286;2023-04-25T04:46:19;13.32;;;3.08;;
64826;SDS011;51265;53.972;12.286;2023-04-25T04:49:11;13.95;;;2.97;;
64826;SDS011;51265;53.972;12.286;2023-04-25T04:52:05;15.77;;;3.03;;
64826;SDS011;51265;53.972;12.286;2023-04-25T04:54:57;13.45;;;3.15;;
64826;SDS011;51265;53.972;12.286;2023-04-25T04:57:42;11.05;;;2.90;;
64826;SDS011;51265;53.972;12.286;2023-04-25T05:00:12;14.80;;;3.60;;
64826;SDS011;51265;53.972;12.286;2023-04-25T05:02:57;14.45;;;3.45;;
64826;SDS011;51265;53.972;12.286;2023-04-25T05:05:30;16.55;;;3.03;;
64826;SDS011;51265;53.972;12.286;2023-04-25T05:10:59;15.85;;;3.72;;
64826;SDS011;51265;53.972;12.286;2023-04-25T05:13:36;21.15;;;3.03;;
64826;SDS011;51265;53.972;12.286;2023-04-25T05:16:32;13.82;;;2.92;;
64826;SDS011;51265;53.972;12.286;2023-04-25T05:19:16;19.38;;;3.55;;
64826;SDS011;51265;53.972;12.286;2023-04-25T05:22:03;18.45;;;3.15;;
64826;SDS011;51265;53.972;12.286;2023-04-25T05:24:54;13.73;;;2.97;;
64826;SDS011;51265;53.972;12.286;2023-04-25T05:27:49;17.75;;;3.30;;
64826;SDS011;51265;53.972;12.286;2023-04-25T05:30:40;15.70;;;2.90;;
64826;SDS011;51265;53.972;12.286;2023-04-25T05:33:14;18.92;;;3.50;;
64826;SDS011;51265;53.972;12.286;2023-04-25T05:35:41;20.50;;;3.00;;
64826;SDS011;51265;53.972;12.286;2023-04-25T05:38:08;11.93;;;2.92;;
64826;SDS011;51265;53.972;12.286;2023-04-25T05:40:55;16.90;;;3.35;;
64826;SDS011;51265;53.972;12.286;2023-04-25T05:43:41;15.73;;;2.70;;
64826;SDS011;51265;53.972;12.286;2023-04-25T05:46:29;13.10;;;3.38;;
64826;SDS011;51265;53.972;12.286;2023-04-25T05:49:24;17.15;;;3.33;;
64826;SDS011;51265;53.972;12.286;2023-04-25T05:52:18;17.40;;;2.90;;
64826;SDS011;51265;53.972;12.286;2023-04-25T05:54:48;22.65;;;3.45;;
64826;SDS011;51265;53.972;12.286;2023-04-25T05:57:19;18.63;;;3.40;;
64826;SDS011;51265;53.972;12.286;2023-04-25T05:59:52;25.63;;;3.50;;
64826;SDS011;51265;53.972;12.286;2023-04-25T06:02:20;18.92;;;4.07;;
64826;SDS011;51265;53.972;12.286;2023-04-25T06:04:51;17.08;;;3.40;;
64826;SDS011;51265;53.972;12.286;2023-04-25T06:07:18;17.60;;;3.78;;
64826;SDS011;51265;53.972;12.286;2023-04-25T06:09:45;21.33;;;3.63;;
64826;SDS011;51265;53.972;12.286;2023-04-25T06:12:12;15.77;;;2.65;;
64826;SDS011;51265;53.972;12.286;2023-04-25T06:14:38;17.95;;;3.38;;
64826;SDS011;51265;53.972;12.286;2023-04-25T06:17:05;17.13;;;3.15;;
64826;SDS011;51265;53.972;12.286;2023-04-25T06:19:35;18.85;;;3.60;;
64826;SDS011;51265;53.972;12.286;2023-04-25T06:22:02;20.88;;;3.50;;
64826;SDS011;51265;53.972;12.286;2023-04-25T06:24:31;13.68;;;2.80;;
64826;SDS011;51265;53.972;12.286;2023-04-25T06:26:57;17.58;;;5.15;;
64826;SDS011;51265;53.972;12.286;2023-04-25T06:29:24;13.25;;;3.17;;
64826;SDS011;51265;53.972;12.286;2023-04-25T06:31:50;18.95;;;3.40;;
64826;SDS011;51265;53.972;12.286;2023-04-25T06:34:17;18.42;;;3.22;;
64826;SDS011;51265;53.972;12.286;2023-04-25T06:36:45;15.65;;;3.17;;
64826;SDS011;51265;53.972;12.286;2023-04-25T06:39:14;21.63;;;3.20;;
64826;SDS011;51265;53.972;12.286;2023-04-25T06:41:41;15.43;;;3.80;;
64826;SDS011;51265;53.972;12.286;2023-04-25T06:46:51;16.55;;;3.35;;
64826;SDS011;51265;53.972;12.286;2023-04-25T06:49:18;21.73;;;2.90;;
64826;SDS011;51265;53.972;12.286;2023-04-25T06:51:45;18.38;;;3.40;;
64826;SDS011;51265;53.972;12.286;2023-04-25T06:54:11;22.30;;;3.30;;
64826;SDS011;51265;53.972;12.286;2023-04-25T06:56:46;21.02;;;3.58;;
64826;SDS011;51265;53.972;12.286;2023-04-25T06:59:14;19.90;;;2.80;;
64826;SDS011;51265;53.972;12.286;2023-04-25T07:01:42;15.43;;;2.90;;
64826;SDS011;51265;53.972;12.286;2023-04-25T07:04:14;13.65;;;3.22;;
64826;SDS011;51265;53.972;12.286;2023-04-25T07:06:46;17.23;;;3.10;;
64826;SDS011;51265;53.972;12.286;2023-04-25T07:09:16;15.80;;;3.22;;
64826;SDS011;51265;53.972;12.286;2023-04-25T07:11:46;16.25;;;2.70;;
64826;SDS011;51265;53.972;12.286;2023-04-25T07:14:12;12.23;;;2.63;;
64826;SDS011;51265;53.972;12.286;2023-04-25T07:16:42;12.68;;;2.72;;
64826;SDS011;51265;53.972;12.286;2023-04-25T07:19:10;12.85;;;2.28;;
64826;SDS011;51265;53.972;12.286;2023-04-25T07:21:37;9.50;;;2.20;;
64826;SDS011;51265;53.972;12.286;2023-04-25T07:24:05;11.13;;;2.10;;
64826;SDS011;51265;53.972;12.286;2023-04-25T07:26:35;12.07;;;2.45;;
64826;SDS011;51265;53.972;12.286;2023-04-25T07:29:24;11.40;;;2.50;;
64826;SDS011;51265;53.972;12.286;2023-04-25T07:31:51;15.43;;;3.28;;
64826;SDS011;51265;53.972;12.286;2023-04-25T07:34:19;11.55;;;2.80;;
64826;SDS011;51265;53.972;12.286;2023-04-25T07:36:46;17.02;;;2.97;;
64826;SDS011;51265;53.972;12.286;2023-04-25T07:39:13;15.38;;;2.83;;
64826;SDS011;51265;53.972;12.286;2023-04-25T07:41:41;11.50;;;2.40;;
64826;SDS011;51265;53.972;12.286;2023-04-25T07:44:11;17.80;;;2.88;;
64826;SDS011;51265;53.972;12.286;2023-04-25T07:46:38;13.43;;;2.83;;
64826;SDS011;51265;53.972;12.286;2023-04-25T07:49:05;12.65;;;2.33;;
64826;SDS011;51265;53.972;12.286;2023-04-25T07:51:32;14.65;;;2.70;;
64826;SDS011;51265;53.972;12.286;2023-04-25T07:54:04;16.05;;;2.78;;
64826;SDS011;51265;53.972;12.286;2023-04-25T07:56:34;13.85;;;2.58;;
64826;SDS011;51265;53.972;12.286;2023-04-25T07:59:01;16.65;;;2.38;;
64826;SDS011;51265;53.972;12.286;2023-04-25T08:01:27;14.00;;;2.97;;
64826;SDS011;51265;53.972;12.286;2023-04-25T08:04:00;12.13;;;2.70;;
64826;SDS011;51265;53.972;12.286;2023-04-25T08:06:39;13.98;;;2.42;;
64826;SDS011;51265;53.972;12.286;2023-04-25T08:09:14;12.20;;;3.00;;
64826;SDS011;51265;53.972;12.286;2023-04-25T08:11:42;16.75;;;2.38;;
64826;SDS011;51265;53.972;12.286;2023-04-25T08:14:11;19.20;;;2.25;;
64826;SDS011;51265;53.972;12.286;2023-04-25T08:16:39;19.90;;;3.67;;
64826;SDS011;51265;53.972;12.286;2023-04-25T08:19:06;13.43;;;2.35;;
64826;SDS011;51265;53.972;12.286;2023-04-25T08:21:33;16.63;;;2.42;;
64826;SDS011;51265;53.972;12.286;2023-04-25T08:24:03;13.75;;;2.70;;
64826;SDS011;51265;53.972;12.286;2023-04-25T08:26:33;12.35;;;2.30;;
64826;SDS011;51265;53.972;12.286;2023-04-25T08:29:00;14.75;;;3.08;;
64826;SDS011;51265;53.972;12.286;2023-04-25T08:31:27;7.90;;;2.58;;
64826;SDS011;51265;53.972;12.286;2023-04-25T08:33:59;8.70;;;2.00;;
64826;SDS011;51265;53.972;12.286;2023-04-25T08:36:31;12.60;;;2.60;;
64826;SDS011;51265;53.972;12.286;2023-04-25T08:38:58;12.48;;;2.70;;
64826;SDS011;51265;53.972;12.286;2023-04-25T08:41:26;13.68;;;2.80;;
64826;SDS011;51265;53.972;12.286;2023-04-25T08:43:53;8.18;;;1.98;;
64826;SDS011;51265;53.972;12.286;2023-04-25T08:46:23;14.73;;;2.45;;
64826;SDS011;51265;53.972;12.286;2023-04-25T08:49:10;11.35;;;2.15;;
64826;SDS011;51265;53.972;12.286;2023-04-25T08:51:44;13.02;;;2.38;;
64826;SDS011;51265;53.972;12.286;2023-04-25T08:54:17;15.50;;;2.90;;
64826;SDS011;51265;53.972;12.286;2023-04-25T08:56:47;10.73;;;2.13;;
64826;SDS011;51265;53.972;12.286;2023-04-25T08:59:14;20.73;;;2.90;;
64826;SDS011;51265;53.972;12.286;2023-04-25T09:01:43;11.23;;;2.20;;
64826;SDS011;51265;53.972;12.286;2023-04-25T09:04:09;11.48;;;2.33;;
64826;SDS011;51265;53.972;12.286;2023-04-25T09:06:39;16.15;;;3.20;;
64826;SDS011;51265;53.972;12.286;2023-04-25T09:09:07;9.73;;;2.00;;
64826;SDS011;51265;53.972;12.286;2023-04-25T09:11:36;12.70;;;2.85;;
64826;SDS011;51265;53.972;12.286;2023-04-25T09:14:20;13.90;;;2.70;;
64826;SDS011;51265;53.972;12.286;2023-04-25T09:17:08;13.02;;;3.17;;
64826;SDS011;51265;53.972;12.286;2023-04-25T09:19:54;10.05;;;2.50;;
64826;SDS011;51265;53.972;12.286;2023-04-25T09:22:26;10.65;;;2.92;;
64826;SDS011;51265;53.972;12.286;2023-04-25T09:24:53;13.55;;;2.38;;
64826;SDS011;51265;53.972;12.286;2023-04-25T09:27:22;10.70;;;1.95;;
64826;SDS011;51265;53.972;12.286;2023-04-25T09:30:13;10.25;;;2.22;;
64826;SDS011;51265;53.972;12.286;2023-04-25T09:32:56;11.23;;;2.42;;
64826;SDS011;51265;53.972;12.286;2023-04-25T09:35:24;14.10;;;2.50;;
64826;SDS011;51265;53.972;12.286;2023-04-25T09:37:56;13.77;;;2.45;;
64826;SDS011;51265;53.972;12.286;2023-04-25T09:40:45;10.88;;;2.10;;
64826;SDS011;51265;53.972;12.286;2023-04-25T09:43:28;14.82;;;1.88;;
64826;SDS011;51265;53.972;12.286;2023-04-25T09:45:56;10.50;;;1.58;;
64826;SDS011;51265;53.972;12.286;2023-04-25T09:48:27;12.80;;;2.20;;
64826;SDS011;51265;53.972;12.286;2023-04-25T09:51:07;7.55;;;1.73;;
64826;SDS011;51265;53.972;12.286;2023-04-25T09:53:36;7.70;;;1.98;;
64826;SDS011;51265;53.972;12.286;2023-04-25T09:56:24;12.40;;;2.70;;
64826;SDS011;51265;53.972;12.286;2023-04-25T09:58:57;11.02;;;2.03;;
64826;SDS011;51265;53.972;12.286;2023-04-25T10:01:24;12.55;;;2.67;;
64826;SDS011;51265;53.972;12.286;2023-04-25T10:04:19;14.25;;;2.47;;
64826;SDS011;51265;53.972;12.286;2023-04-25T10:06:59;11.02;;;2.17;;
64826;SDS011;51265;53.972;12.286;2023-04-25T10:09:27;10.27;;;2.45;;
64826;SDS011;51265;53.972;12.286;2023-04-25T10:11:59;20.20;;;2.88;;
64826;SDS011;51265;53.972;12.286;2023-04-25T10:14:26;15.80;;;2.55;;
64826;SDS011;51265;53.972;12.286;2023-04-25T10:16:53;14.65;;;2.58;;
64826;SDS011;51265;53.972;12.286;2023-04-25T10:19:21;9.52;;;2.17;;
64826;SDS011;51265;53.972;12.286;2023-04-25T10:21:54;21.33;;;2.50;;
64826;SDS011;51265;53.972;12.286;2023-04-25T10:24:28;15.98;;;2.45;;
64826;SDS011;51265;53.972;12.286;2023-04-25T10:26:55;15.27;;;2.60;;
64826;SDS011;51265;53.972;12.286;2023-04-25T10:29:24;10.13;;;1.85;;
64826;SDS011;51265;53.972;12.286;2023-04-25T10:31:51;8.13;;;2.03;;
64826;SDS011;51265;53.972;12.286;2023-04-25T10:34:18;13.77;;;2.47;;
64826;SDS011;51265;53.972;12.286;2023-04-25T10:36:49;12.13;;;2.00;;
64826;SDS011;51265;53.972;12.286;2023-04-25T10:39:24;10.77;;;2.47;;
64826;SDS011;51265;53.972;12.286;2023-04-25T10:41:55;13.20;;;2.17;;
64826;SDS011;51265;53.972;12.286;2023-04-25T10:44:22;10.98;;;2.30;;
64826;SDS011;51265;53.972;12.286;2023-04-25T10:46:49;7.07;;;1.70;;
64826;SDS011;51265;53.972;12.286;2023-04-25T10:49:28;13.55;;;2.80;;
64826;SDS011;51265;53.972;12.286;2023-04-25T10:55:00;16.88;;;1.80;;
64826;SDS011;51265;53.972;12.286;2023-04-25T11:02:45;10.63;;;1.80;;
64826;SDS011;51265;53.972;12.286;2023-04-25T11:05:24;13.18;;;1.92;;
64826;SDS011;51265;53.972;12.286;2023-04-25T11:07:57;13.00;;;2.10;;
64826;SDS011;51265;53.972;12.286;2023-04-25T11:10:28;14.10;;;1.98;;
64826;SDS011;51265;53.972;12.286;2023-04-25T11:12:56;11.85;;;2.13;;
64826;SDS011;51265;53.972;12.286;2023-04-25T11:15:24;6.07;;;1.90;;
64826;SDS011;51265;53.972;12.286;2023-04-25T11:17:51;10.25;;;1.90;;
64826;SDS011;51265;53.972;12.286;2023-04-25T11:20:18;7.50;;;1.42;;
64826;SDS011;51265;53.972;12.286;2023-04-25T11:22:45;10.15;;;1.75;;
64826;SDS011;51265;53.972;12.286;2023-04-25T11:25:13;13.32;;;2.10;;
64826;SDS011;51265;53.972;12.286;2023-04-25T11:30:17;9.45;;;1.83;;
64826;SDS011;51265;53.972;12.286;2023-04-25T11:32:44;8.73;;;1.73;;
64826;SDS011;51265;53.972;12.286;2023-04-25T11:35:11;12.95;;;2.00;;
64826;SDS011;51265;53.972;12.286;2023-04-25T11:37:41;12.07;;;2.17;;
64826;SDS011;51265;53.972;12.286;2023-04-25T11:40:09;10.05;;;1.98;;
64826;SDS011;51265;53.972;12.286;2023-04-25T11:42:37;10.85;;;2.00;;
64826;SDS011;51265;53.972;12.286;2023-04-25T11:45:05;9.00;;;1.70;;
64826;SDS011;51265;53.972;12.286;2023-04-25T11:47:33;12.43;;;1.83;;
64826;SDS011;51265;53.972;12.286;2023-04-25T11:50:03;8.63;;;1.63;;
64826;SDS011;51265;53.972;12.286;2023-04-25T11:52:41;8.15;;;2.20;;
64826;SDS011;51265;53.972;12.286;2023-04-25T11:55:12;8.23;;;1.88;;
64826;SDS011;51265;53.972;12.286;2023-04-25T11:57:40;6.10;;;1.48;;
64826;SDS011;51265;53.972;12.286;2023-04-25T12:00:08;10.07;;;2.30;;
64826;SDS011;51265;53.972;12.286;2023-04-25T12:02:42;9.25;;;1.58;;
64826;SDS011;51265;53.972;12.286;2023-04-25T12:05:09;6.05;;;1.88;;
64826;SDS011;51265;53.972;12.286;2023-04-25T12:07:37;14.98;;;1.67;;
64826;SDS011;51265;53.972;12.286;2023-04-25T12:10:08;7.00;;;2.17;;
64826;SDS011;51265;53.972;12.286;2023-04-25T12:12:36;11.73;;;2.08;;
64826;SDS011;51265;53.972;12.286;2023-04-25T12:20:08;10.65;;;1.77;;
64826;SDS011;51265;53.972;12.286;2023-04-25T12:22:46;12.82;;;2.10;;
64826;SDS011;51265;53.972;12.286;2023-04-25T12:25:14;9.55;;;1.50;;
64826;SDS011;51265;53.972;12.286;2023-04-25T12:33:40;11.77;;;1.52;;
64826;SDS011;51265;53.972;12.286;2023-04-25T12:36:08;8.27;;;1.67;;
64826;SDS011;51265;53.972;12.286;2023-04-25T12:38:37;8.80;;;1.50;;
64826;SDS011;51265;53.972;12.286;2023-04-25T12:41:05;8.88;;;1.40;;
64826;SDS011;51265;53.972;12.286;2023-04-25T12:43:31;5.65;;;1.70;;
64826;SDS011;51265;53.972;12.286;2023-04-25T12:45:58;8.90;;;2.35;;
64826;SDS011;51265;53.972;12.286;2023-04-25T12:48:25;7.13;;;1.60;;
64826;SDS011;51265;53.972;12.286;2023-04-25T12:50:52;9.60;;;1.40;;
64826;SDS011;51265;53.972;12.286;2023-04-25T12:53:18;9.45;;;1.67;;
64826;SDS011;51265;53.972;12.286;2023-04-25T12:55:46;4.85;;;1.27;;
64826;SDS011;51265;53.972;12.286;2023-04-25T12:58:14;12.63;;;2.45;;
64826;SDS011;51265;53.972;12.286;2023-04-25T13:00:41;6.15;;;1.80;;
64826;SDS011;51265;53.972;12.286;2023-04-25T13:03:08;8.73;;;1.33;;
64826;SDS011;51265;53.972;12.286;2023-04-25T13:05:35;6.63;;;1.85;;
64826;SDS011;51265;53.972;12.286;2023-04-25T13:08:01;10.73;;;1.92;;
64826;SDS011;51265;53.972;12.286;2023-04-25T13:10:28;9.40;;;1.80;;
64826;SDS011;51265;53.972;12.286;2023-04-25T13:12:55;9.75;;;1.67;;
64826;SDS011;51265;53.972;12.286;2023-04-25T13:15:21;12.15;;;1.80;;
64826;SDS011;51265;53.972;12.286;2023-04-25T13:17:47;13.32;;;1.40;;
64826;SDS011;51265;53.972;12.286;2023-04-25T13:20:14;8.13;;;1.40;;
64826;SDS011;51265;53.972;12.286;2023-04-25T13:22:41;10.02;;;1.50;;
64826;SDS011;51265;53.972;12.286;2023-04-25T13:25:08;7.55;;;1.73;;
64826;SDS011;51265;53.972;12.286;2023-04-25T13:27:38;8.48;;;1.35;;
64826;SDS011;51265;53.972;12.286;2023-04-25T13:30:06;9.57;;;1.15;;
64826;SDS011;51265;53.972;12.286;2023-04-25T13:32:33;5.45;;;1.13;;
64826;SDS011;51265;53.972;12.286;2023-04-25T13:35:03;7.07;;;1.63;;
64826;SDS011;51265;53.972;12.286;2023-04-25T13:37:31;7.65;;;1.40;;
64826;SDS011;51265;53.972;12.286;2023-04-25T13:39:59;4.97;;;1.52;;
64826;SDS011;51265;53.972;12.286;2023-04-25T13:42:26;9.57;;;1.30;;
64826;SDS011;51265;53.972;12.286;2023-04-25T13:44:53;8.88;;;1.13;;
64826;SDS011;51265;53.972;12.286;2023-04-25T13:47:19;8.27;;;1.42;;
64826;SDS011;51265;53.972;12.286;2023-04-25T13:49:45;5.38;;;1.30;;
64826;SDS011;51265;53.972;12.286;2023-04-25T13:52:12;4.20;;;1.17;;
64826;SDS011;51265;53.972;12.286;2023-04-25T13:54:38;6.68;;;1.00;;
64826;SDS011;51265;53.972;12.286;2023-04-25T13:57:05;7.18;;;1.17;;
64826;SDS011;51265;53.972;12.286;2023-04-25T13:59:31;8.70;;;1.60;;
64826;SDS011;51265;53.972;12.286;2023-04-25T14:01:58;7.63;;;1.17;;
64826;SDS011;51265;53.972;12.286;2023-04-25T14:04:24;7.30;;;1.45;;
64826;SDS011;51265;53.972;12.286;2023-04-25T14:06:51;6.43;;;1.42;;
64826;SDS011;51265;53.972;12.286;2023-04-25T14:09:18;7.03;;;1.33;;
64826;SDS011;51265;53.972;12.286;2023-04-25T14:11:46;7.35;;;1.10;;
64826;SDS011;51265;53.972;12.286;2023-04-25T14:14:13;4.65;;;1.17;;
64826;SDS011;51265;53.972;12.286;2023-04-25T14:16:42;5.75;;;0.93;;
64826;SDS011;51265;53.972;12.286;2023-04-25T14:19:08;6.57;;;1.63;;
64826;SDS011;51265;53.972;12.286;2023-04-25T14:21:34;6.35;;;1.33;;
64826;SDS011;51265;53.972;12.286;2023-04-25T14:24:01;7.53;;;1.25;;
64826;SDS011;51265;53.972;12.286;2023-04-25T14:26:27;12.00;;;1.92;;
64826;SDS011;51265;53.972;12.286;2023-04-25T14:28:54;10.65;;;1.67;;
64826;SDS011;51265;53.972;12.286;2023-04-25T14:31:20;7.82;;;1.67;;
64826;SDS011;51265;53.972;12.286;2023-04-25T14:33:47;7.97;;;1.33;;
64826;SDS011;51265;53.972;12.286;2023-04-25T14:36:13;7.10;;;1.80;;
64826;SDS011;51265;53.972;12.286;2023-04-25T14:38:40;10.75;;;1.80;;
64826;SDS011;51265;53.972;12.286;2023-04-25T14:41:06;5.38;;;2.00;;
64826;SDS011;51265;53.972;12.286;2023-04-25T14:43:33;7.25;;;1.50;;
64826;SDS011;51265;53.972;12.286;2023-04-25T14:45:59;8.45;;;1.52;;
64826;SDS011;51265;53.972;12.286;2023-04-25T14:48:25;10.60;;;1.42;;
64826;SDS011;51265;53.972;12.286;2023-04-25T14:50:52;16.98;;;2.00;;
64826;SDS011;51265;53.972;12.286;2023-04-25T14:53:18;7.05;;;1.25;;
64826;SDS011;51265;53.972;12.286;2023-04-25T14:55:45;10.25;;;1.48;;
64826;SDS011;51265;53.972;12.286;2023-04-25T14:58:11;7.00;;;1.50;;
64826;SDS011;51265;53.972;12.286;2023-04-25T15:00:37;10.85;;;1.77;;
64826;SDS011;51265;53.972;12.286;2023-04-25T15:03:04;4.22;;;1.20;;
64826;SDS011;51265;53.972;12.286;2023-04-25T15:05:31;8.07;;;1.17;;
64826;SDS011;51265;53.972;12.286;2023-04-25T15:07:57;10.02;;;1.20;;
64826;SDS011;51265;53.972;12.286;2023-04-25T15:10:24;7.82;;;1.42;;
64826;SDS011;51265;53.972;12.286;2023-04-25T15:12:50;11.80;;;1.55;;
64826;SDS011;51265;53.972;12.286;2023-04-25T15:15:17;7.53;;;1.35;;
64826;SDS011;51265;53.972;12.286;2023-04-25T15:17:44;7.90;;;1.38;;
64826;SDS011;51265;53.972;12.286;2023-04-25T15:20:11;4.43;;;1.33;;
64826;SDS011;51265;53.972;12.286;2023-04-25T15:22:41;4.97;;;1.40;;